TimeMDT,TemperatureF,Dew PointF,Humidity,Sea Level PressureIn,VisibilityMPH,Wind Direction,Wind SpeedMPH,Gust SpeedMPH,PrecipitationIn,Events,Conditions,WindDirDegrees,DateUTC
12:15 AM,26.6,21.2,80,29.87,10.0,SSW,13.8,-,N/A,,Mostly Cloudy,210,2014-04-03 06:15:00
12:35 AM,28.4,24.8,86,29.88,10.0,SW,9.2,-,N/A,,Overcast,230,2014-04-03 06:35:00
12:55 AM,26.6,23.0,86,29.88,10.0,West,3.5,-,N/A,,Mostly Cloudy,260,2014-04-03 06:55:00
1:15 AM,21.2,17.6,86,29.89,10.0,Calm,Calm,-,N/A,,Clear,0,2014-04-03 07:15:00
1:35 AM,19.4,17.6,93,29.90,10.0,Calm,Calm,-,N/A,,Clear,0,2014-04-03 07:35:00
1:55 AM,21.2,19.4,93,29.91,10.0,Calm,Calm,-,N/A,,Scattered Clouds,0,2014-04-03 07:55:00
2:15 AM,19.4,19.4,100,29.91,0.2,NNE,4.6,-,N/A,,Overcast,20,2014-04-03 08:15:00
2:35 AM,19.4,17.6,93,29.91,0.2,Calm,Calm,-,N/A,,Overcast,0,2014-04-03 08:35:00
2:55 AM,19.4,19.4,100,29.91,0.2,SW,3.5,-,N/A,,Overcast,220,2014-04-03 08:55:00
3:15 AM,21.2,19.4,93,29.91,0.8,Calm,Calm,-,N/A,,Overcast,0,2014-04-03 09:15:00
3:35 AM,21.2,21.2,100,29.92,4.0,Calm,Calm,-,N/A,,Overcast,0,2014-04-03 09:35:00
3:55 AM,21.2,21.2,100,29.91,10.0,South,5.8,-,N/A,,Mostly Cloudy,180,2014-04-03 09:55:00
4:15 AM,21.2,19.4,93,29.91,10.0,South,5.8,-,N/A,,Mostly Cloudy,180,2014-04-03 10:15:00
4:35 AM,21.2,19.4,93,29.91,10.0,South,3.5,-,N/A,,Partly Cloudy,180,2014-04-03 10:35:00
4:55 AM,23.0,21.2,93,29.91,10.0,SSW,4.6,-,N/A,,Scattered Clouds,210,2014-04-03 10:55:00
5:15 AM,24.8,21.2,86,29.92,10.0,SSW,6.9,-,N/A,,Mostly Cloudy,200,2014-04-03 11:15:00
5:35 AM,26.6,23.0,86,29.93,10.0,SW,4.6,-,N/A,,Overcast,230,2014-04-03 11:35:00
5:55 AM,23.0,19.4,86,29.93,10.0,Calm,Calm,-,N/A,,Overcast,0,2014-04-03 11:55:00
6:15 AM,21.2,19.4,93,29.94,10.0,Calm,Calm,-,N/A,,Overcast,0,2014-04-03 12:15:00
6:35 AM,24.8,21.2,86,29.94,10.0,SSW,4.6,-,N/A,,Mostly Cloudy,210,2014-04-03 12:35:00
6:55 AM,28.4,24.8,86,29.96,10.0,Calm,Calm,-,N/A,,Mostly Cloudy,0,2014-04-03 12:55:00
7:15 AM,23.0,19.4,86,29.96,10.0,Calm,Calm,-,N/A,,Overcast,0,2014-04-03 13:15:00
7:35 AM,24.8,21.2,86,29.97,10.0,Calm,Calm,-,N/A,,Scattered Clouds,0,2014-04-03 13:35:00
7:55 AM,26.6,21.2,80,29.97,10.0,SSW,5.8,-,N/A,,Clear,200,2014-04-03 13:55:00
8:15 AM,26.6,19.4,74,29.98,10.0,SW,8.1,-,N/A,,Clear,220,2014-04-03 14:15:00
8:35 AM,28.4,19.4,69,29.98,10.0,SW,6.9,-,N/A,,Clear,230,2014-04-03 14:35:00
8:55 AM,28.4,19.4,69,29.98,10.0,SSW,5.8,-,N/A,,Clear,210,2014-04-03 14:55:00
9:15 AM,28.4,21.2,74,29.98,10.0,SSW,5.8,-,N/A,,Clear,210,2014-04-03 15:15:00
9:35 AM,32.0,21.2,64,29.99,10.0,SW,8.1,-,N/A,,Clear,220,2014-04-03 15:35:00
9:55 AM,32.0,21.2,64,29.99,10.0,Calm,Calm,-,N/A,,Clear,0,2014-04-03 15:55:00
10:15 AM,30.2,23.0,75,30.00,10.0,Calm,Calm,-,N/A,,Clear,0,2014-04-03 16:15:00
10:35 AM,33.8,23.0,65,30.00,10.0,Calm,Calm,-,N/A,,Clear,0,2014-04-03 16:35:00
10:55 AM,33.8,23.0,65,30.01,10.0,Calm,Calm,-,0.01,,Clear,0,2014-04-03 16:55:00
11:15 AM,33.8,23.0,65,30.02,10.0,Calm,Calm,-,0.01,,Clear,0,2014-04-03 17:15:00
11:35 AM,35.6,21.2,56,30.02,10.0,SSE,3.5,-,0.03,,Clear,160,2014-04-03 17:35:00
11:55 AM,35.6,21.2,56,30.02,10.0,Calm,Calm,-,0.05,,Clear,0,2014-04-03 17:55:00
12:15 PM,35.6,21.2,56,30.02,10.0,ESE,3.5,-,0.02,,Clear,120,2014-04-03 18:15:00
12:35 PM,35.6,21.2,56,30.02,10.0,ESE,3.5,-,0.03,,Clear,110,2014-04-03 18:35:00
12:55 PM,35.6,21.2,56,30.02,10.0,NE,5.8,-,0.05,,Clear,50,2014-04-03 18:55:00
1:15 PM,35.6,23.0,60,30.02,10.0,NE,4.6,-,N/A,,Clear,40,2014-04-03 19:15:00
1:35 PM,37.4,23.0,56,30.02,10.0,NE,3.5,-,0.03,,Clear,40,2014-04-03 19:35:00
1:55 PM,37.4,23.0,56,30.01,10.0,NE,5.8,-,0.03,,Clear,40,2014-04-03 19:55:00
2:15 PM,37.4,24.8,60,30.01,10.0,NE,5.8,-,0.02,,Clear,40,2014-04-03 20:15:00
2:35 PM,37.4,24.8,60,30.01,10.0,NE,5.8,-,0.03,,Clear,40,2014-04-03 20:35:00
2:55 PM,37.4,23.0,56,30.01,10.0,NE,4.6,-,0.04,,Clear,40,2014-04-03 20:55:00
3:15 PM,37.4,23.0,56,30.01,10.0,NE,4.6,-,0.01,,Clear,40,2014-04-03 21:15:00
3:35 PM,37.4,23.0,56,30.00,10.0,NE,3.5,-,0.01,,Clear,40,2014-04-03 21:35:00
3:55 PM,39.2,23.0,52,30.00,10.0,NNE,3.5,-,0.02,,Clear,30,2014-04-03 21:55:00
4:15 PM,37.4,23.0,56,30.00,10.0,East,3.5,-,N/A,,Clear,80,2014-04-03 22:15:00
4:35 PM,39.2,24.8,56,30.00,10.0,NE,4.6,-,N/A,,Clear,40,2014-04-03 22:35:00
4:55 PM,37.4,24.8,60,30.00,10.0,ENE,4.6,-,N/A,,Clear,60,2014-04-03 22:55:00
5:15 PM,39.2,24.8,56,30.00,10.0,NE,3.5,-,N/A,,Clear,50,2014-04-03 23:15:00
5:55 PM,39.2,26.6,61,30.00,10.0,NNE,3.5,-,N/A,,Clear,30,2014-04-03 23:55:00
6:15 PM,39.2,26.6,61,30.00,10.0,NE,3.5,-,N/A,,Clear,40,2014-04-04 00:15:00
6:35 PM,39.2,26.6,61,30.00,10.0,NNE,3.5,-,N/A,,Clear,30,2014-04-04 00:35:00
6:55 PM,37.4,26.6,65,30.00,10.0,NE,3.5,-,N/A,,Clear,40,2014-04-04 00:55:00
7:15 PM,37.4,26.6,65,30.01,10.0,NE,4.6,-,N/A,,Clear,40,2014-04-04 01:15:00
7:35 PM,35.6,26.6,70,30.01,10.0,ENE,5.8,-,N/A,,Clear,60,2014-04-04 01:35:00
7:55 PM,33.8,26.6,75,30.01,10.0,NE,4.6,-,N/A,,Clear,40,2014-04-04 01:55:00
8:15 PM,33.8,26.6,75,30.01,10.0,ENE,4.6,-,N/A,,Clear,60,2014-04-04 02:15:00
8:35 PM,33.8,24.8,70,30.01,10.0,NE,4.6,-,N/A,,Clear,50,2014-04-04 02:35:00
9:55 PM,30.2,26.6,86,30.02,10.0,South,4.6,-,N/A,,Clear,180,2014-04-04 03:55:00
10:15 PM,30.2,24.8,80,30.02,10.0,South,6.9,-,N/A,,Clear,170,2014-04-04 04:15:00
10:35 PM,30.2,24.8,80,30.01,10.0,SSE,5.8,-,N/A,,Clear,160,2014-04-04 04:35:00
10:55 PM,28.4,24.8,86,30.01,10.0,South,8.1,-,N/A,,Clear,180,2014-04-04 04:55:00
11:15 PM,32.0,24.8,75,30.00,10.0,SE,10.4,-,N/A,,Clear,140,2014-04-04 05:15:00
11:35 PM,30.2,24.8,80,30.00,10.0,Calm,Calm,-,0.01,,Clear,0,2014-04-04 05:35:00
11:55 PM,32.0,24.8,75,30.00,10.0,SW,8.1,-,0.01,,Clear,230,2014-04-04 05:55:00